createdAt,value
2019-02-15T00:00:09.911Z,19.90
2019-02-15T00:02:39.668Z,20.80
2019-02-15T00:05:08.281Z,20.60
2019-02-15T00:07:38.527Z,19.67
2019-02-15T00:10:07.627Z,20.37
2019-02-15T00:12:36.112Z,20.80
2019-02-15T00:15:05.802Z,18.80
2019-02-15T00:17:35.999Z,20.70
2019-02-15T00:20:08.927Z,19.87
2019-02-15T00:22:37.389Z,20.43
2019-02-15T00:25:06.482Z,20.90
2019-02-15T00:27:35.052Z,19.82
2019-02-15T00:30:06.552Z,19.75
2019-02-15T00:32:36.233Z,20.00
2019-02-15T00:35:05.240Z,18.73
2019-02-15T00:37:33.700Z,19.60
2019-02-15T00:40:02.219Z,20.08
2019-02-15T00:42:30.706Z,20.23
2019-02-15T00:44:59.163Z,19.70
2019-02-15T00:47:36.532Z,18.37
2019-02-15T00:50:08.988Z,20.02
2019-02-15T00:52:50.774Z,19.10
2019-02-15T00:55:27.637Z,19.70
2019-02-15T00:58:00.949Z,18.52
2019-02-15T01:00:39.824Z,18.80
2019-02-15T01:03:19.107Z,18.65
2019-02-15T01:05:55.321Z,17.60
2019-02-15T01:08:31.462Z,17.92
2019-02-15T01:11:04.277Z,18.05
2019-02-15T01:13:32.737Z,17.83
2019-02-15T01:16:01.179Z,18.27
2019-02-15T01:18:29.651Z,17.95
2019-02-15T01:20:58.104Z,18.12
2019-02-15T01:23:26.551Z,17.95
2019-02-15T01:25:56.688Z,18.00
2019-02-15T01:28:29.624Z,17.45
2019-02-15T01:31:08.764Z,16.23
2019-02-15T01:33:48.049Z,16.73
2019-02-15T01:36:21.048Z,17.07
2019-02-15T01:38:51.135Z,16.70
2019-02-15T01:41:30.272Z,16.67
2019-02-15T01:44:00.368Z,16.67
2019-02-15T01:46:33.199Z,16.70
2019-02-15T01:49:01.668Z,15.95
2019-02-15T01:51:30.219Z,16.95
2019-02-15T01:53:58.683Z,17.32
2019-02-15T01:56:27.240Z,16.32
2019-02-15T01:58:55.688Z,17.07
2019-02-15T02:01:24.703Z,16.55
2019-02-15T02:03:53.263Z,16.40
2019-02-15T02:06:21.898Z,15.53
2019-02-15T02:08:50.437Z,15.80
2019-02-15T02:11:19.053Z,16.82
2019-02-15T02:13:49.631Z,15.28
2019-02-15T02:16:17.825Z,15.70
2019-02-15T02:18:46.306Z,15.28
2019-02-15T02:21:14.762Z,15.30
2019-02-15T02:23:43.214Z,15.48
2019-02-15T02:26:12.163Z,15.23
2019-02-15T02:28:41.288Z,14.50
2019-02-15T02:31:09.822Z,13.78
2019-02-15T02:33:38.359Z,13.45
2019-02-15T02:36:06.812Z,13.43
2019-02-15T02:38:35.347Z,13.93
2019-02-15T02:41:03.977Z,13.20
2019-02-15T02:43:32.566Z,12.35
2019-02-15T02:46:01.136Z,13.28
2019-02-15T02:48:29.591Z,11.48
2019-02-15T02:50:58.034Z,12.25
2019-02-15T02:53:26.541Z,11.83
2019-02-15T02:55:55.587Z,11.35
2019-02-15T02:58:24.110Z,11.68
2019-02-15T03:00:52.642Z,10.93
2019-02-15T03:03:21.107Z,11.60
2019-02-15T03:05:49.613Z,10.43
2019-02-15T03:08:18.158Z,10.75
2019-02-15T03:10:46.620Z,10.50
2019-02-15T03:13:15.065Z,10.58
2019-02-15T03:15:46.727Z,10.72
2019-02-15T03:18:16.924Z,10.53
2019-02-15T03:20:45.379Z,11.12
2019-02-15T03:23:13.867Z,10.20
2019-02-15T03:25:42.342Z,9.53
2019-02-15T03:28:10.817Z,9.85
2019-02-15T03:30:39.344Z,9.90
2019-02-15T03:33:07.834Z,9.83
2019-02-15T03:35:36.433Z,10.53
2019-02-15T03:38:10.211Z,10.38
2019-02-15T03:40:40.228Z,9.13
2019-02-15T03:43:10.034Z,10.03
2019-02-15T03:45:38.520Z,9.63
2019-02-15T03:48:07.052Z,9.13
2019-02-15T03:50:35.527Z,9.93
2019-02-15T03:53:04.681Z,9.95
2019-02-15T03:55:33.257Z,9.73
2019-02-15T03:58:01.810Z,10.20
2019-02-15T04:00:30.462Z,10.25
2019-02-15T04:02:58.982Z,8.50
2019-02-15T04:05:27.599Z,9.63
2019-02-15T04:07:56.336Z,10.03
2019-02-15T04:10:24.819Z,9.93
2019-02-15T04:12:53.276Z,9.60
2019-02-15T04:15:21.803Z,9.98
2019-02-15T04:17:50.935Z,9.10
2019-02-15T04:20:19.400Z,9.60
2019-02-15T04:22:47.960Z,9.93
2019-02-15T04:25:16.441Z,9.93
2019-02-15T04:27:46.186Z,9.58
2019-02-15T04:30:14.634Z,9.45
2019-02-15T04:32:43.178Z,10.15
2019-02-15T04:35:11.667Z,9.23
2019-02-15T04:37:40.139Z,10.15
2019-02-15T04:40:09.729Z,9.53
2019-02-15T04:42:38.344Z,9.93
2019-02-15T04:45:07.643Z,9.75
2019-02-15T04:47:36.158Z,10.03
2019-02-15T04:50:06.471Z,9.68
2019-02-15T04:52:34.921Z,10.05
2019-02-15T04:55:04.026Z,10.08
2019-02-15T04:57:32.660Z,9.13
2019-02-15T05:00:01.108Z,10.45
2019-02-15T05:02:29.591Z,10.20
2019-02-15T05:04:58.080Z,10.68
2019-02-15T05:07:26.554Z,9.98
2019-02-15T05:09:55.093Z,10.78
2019-02-15T05:12:23.582Z,10.85
2019-02-15T05:14:53.405Z,9.55
2019-02-15T05:17:22.061Z,9.25
2019-02-15T05:19:50.528Z,9.30
2019-02-15T05:22:18.989Z,9.98
2019-02-15T05:24:47.431Z,10.43
2019-02-15T05:27:15.907Z,10.48
2019-02-15T05:29:44.352Z,11.08
2019-02-15T05:32:13.858Z,10.50
2019-02-15T05:34:42.449Z,10.18
2019-02-15T05:37:10.946Z,10.40
2019-02-15T05:39:39.495Z,9.63
2019-02-15T05:42:08.054Z,9.90
2019-02-15T05:44:36.559Z,9.73
2019-02-15T05:47:05.004Z,10.05
2019-02-15T05:49:33.577Z,9.95
2019-02-15T05:52:02.030Z,9.93
2019-02-15T05:54:30.483Z,10.23
2019-02-15T05:56:59.134Z,9.75
2019-02-15T05:59:27.654Z,9.45
2019-02-15T06:01:56.190Z,9.58
2019-02-15T06:04:24.726Z,9.43
2019-02-15T06:06:53.164Z,9.68
2019-02-15T06:09:21.618Z,10.57
2019-02-15T06:11:50.087Z,10.03
2019-02-15T06:14:18.536Z,9.23
2019-02-15T06:16:47.103Z,10.55
2019-02-15T06:19:15.627Z,9.68
2019-02-15T06:21:44.076Z,10.03
2019-02-15T06:24:12.532Z,9.50
2019-02-15T06:26:42.859Z,9.80
2019-02-15T06:29:11.298Z,10.18
2019-02-15T06:31:39.738Z,9.73
2019-02-15T06:34:08.214Z,10.15
2019-02-15T06:36:36.902Z,9.60
2019-02-15T06:39:07.107Z,10.40
2019-02-15T06:41:37.564Z,9.95
2019-02-15T06:44:06.019Z,10.78
2019-02-15T06:46:34.535Z,9.83
2019-02-15T06:49:03.086Z,9.93
2019-02-15T06:51:31.536Z,11.20
2019-02-15T06:54:00.003Z,12.23
2019-02-15T06:56:28.474Z,10.08
2019-02-15T06:58:58.588Z,10.03
2019-02-15T07:01:45.319Z,9.30
2019-02-15T07:04:20.917Z,9.38
2019-02-15T07:06:49.604Z,9.88
2019-02-15T07:09:18.075Z,10.65
2019-02-15T07:11:46.612Z,9.23
2019-02-15T07:14:15.063Z,10.43
2019-02-15T07:16:44.732Z,9.53
2019-02-15T07:19:13.264Z,10.63
2019-02-15T07:21:41.735Z,10.30
2019-02-15T07:24:10.231Z,9.98
2019-02-15T07:26:38.784Z,9.75
2019-02-15T07:29:08.796Z,10.60
2019-02-15T07:31:38.903Z,9.70
2019-02-15T07:34:07.366Z,9.83
2019-02-15T07:36:36.722Z,9.33
2019-02-15T07:39:06.145Z,9.75
2019-02-15T07:41:34.606Z,8.90
2019-02-15T07:44:03.115Z,8.85
2019-02-15T07:46:31.681Z,9.33
2019-02-15T07:49:01.472Z,9.00
2019-02-15T07:51:31.078Z,10.08
2019-02-15T07:53:59.535Z,9.35
2019-02-15T07:56:49.071Z,8.98
2019-02-15T07:59:17.570Z,12.37
2019-02-15T08:01:47.356Z,10.10
2019-02-15T08:04:17.356Z,9.95
2019-02-15T08:06:46.055Z,8.98
2019-02-15T08:09:14.512Z,10.32
2019-02-15T08:11:42.965Z,9.28
2019-02-15T08:14:14.790Z,9.40
2019-02-15T08:16:41.677Z,8.90
2019-02-15T08:19:10.129Z,10.30
2019-02-15T08:21:39.682Z,10.13
2019-02-15T08:24:08.165Z,9.18
2019-02-15T08:26:36.891Z,8.70
2019-02-15T08:29:05.362Z,8.45
2019-02-15T08:31:33.822Z,8.88
2019-02-15T08:34:02.339Z,8.20
2019-02-15T08:36:36.167Z,8.88
2019-02-15T08:39:07.050Z,8.83
2019-02-15T08:41:35.631Z,8.95
2019-02-15T08:44:04.489Z,9.35
2019-02-15T08:46:37.941Z,10.10
2019-02-15T08:49:06.397Z,9.10
2019-02-15T08:51:34.907Z,8.80
2019-02-15T08:54:03.351Z,8.68
2019-02-15T08:56:31.823Z,8.83
2019-02-15T08:59:01.998Z,8.25
2019-02-15T09:01:30.468Z,8.00
2019-02-15T09:03:58.927Z,9.08
2019-02-15T09:06:27.475Z,8.75
2019-02-15T09:08:55.936Z,8.13
2019-02-15T09:11:24.398Z,8.38
2019-02-15T09:13:52.868Z,8.93
2019-02-15T09:16:21.513Z,8.75
2019-02-15T09:18:49.953Z,8.50
2019-02-15T09:21:18.435Z,8.53
2019-02-15T09:23:46.949Z,8.55
2019-02-15T09:26:18.409Z,9.18
2019-02-15T09:28:57.466Z,8.18
2019-02-15T09:31:25.930Z,8.43
2019-02-15T09:33:55.692Z,8.35
2019-02-15T09:36:24.172Z,8.53
2019-02-15T09:38:52.716Z,7.73
2019-02-15T09:41:21.171Z,8.67
2019-02-15T09:43:49.651Z,8.10
2019-02-15T09:46:20.205Z,7.85
2019-02-15T09:48:48.341Z,8.15
2019-02-15T09:51:16.823Z,7.97
2019-02-15T09:53:47.686Z,8.30
2019-02-15T09:56:16.174Z,8.33
2019-02-15T09:58:44.824Z,7.62
2019-02-15T10:01:13.341Z,7.67
2019-02-15T10:03:41.788Z,7.60
2019-02-15T10:06:10.288Z,7.05
2019-02-15T10:08:39.644Z,7.70
2019-02-15T10:11:08.116Z,7.07
2019-02-15T10:13:36.723Z,7.58
2019-02-15T10:16:05.359Z,7.25
2019-02-15T10:18:33.812Z,7.08
2019-02-15T10:21:02.312Z,7.72
2019-02-15T10:23:32.183Z,6.95
2019-02-15T10:26:01.021Z,6.42
2019-02-15T10:28:31.189Z,6.97
2019-02-15T10:31:00.908Z,8.53
2019-02-15T10:33:32.974Z,7.12
2019-02-15T10:36:01.426Z,6.62
2019-02-15T10:38:32.069Z,7.15
2019-02-15T10:41:00.531Z,6.95
2019-02-15T10:43:28.978Z,6.62
2019-02-15T10:45:57.427Z,6.50
2019-02-15T10:48:26.160Z,6.40
2019-02-15T10:51:00.699Z,6.67
2019-02-15T10:53:28.911Z,6.58
2019-02-15T10:55:59.109Z,6.25
2019-02-15T10:58:28.213Z,6.90
2019-02-15T11:00:57.419Z,6.33
2019-02-15T11:03:25.889Z,6.50
2019-02-15T11:05:58.444Z,6.80
2019-02-15T11:08:26.867Z,6.28
2019-02-15T11:10:55.359Z,5.97
2019-02-15T11:13:23.819Z,6.60
2019-02-15T11:15:52.340Z,6.25
2019-02-15T11:18:23.131Z,6.05
2019-02-15T11:20:51.575Z,5.75
2019-02-15T11:23:20.024Z,5.92
2019-02-15T11:25:48.892Z,5.92
2019-02-15T11:28:17.481Z,6.30
2019-02-15T11:30:45.935Z,5.60
2019-02-15T11:33:14.704Z,5.47
2019-02-15T11:35:44.738Z,5.10
2019-02-15T11:38:13.433Z,4.58
2019-02-15T11:40:41.976Z,5.00
2019-02-15T11:43:10.417Z,5.28
2019-02-15T11:45:38.871Z,4.97
2019-02-15T11:48:07.635Z,4.47
2019-02-15T11:50:36.231Z,5.10
2019-02-15T11:53:04.934Z,4.95
2019-02-15T11:55:52.744Z,4.20
2019-02-15T11:58:25.801Z,4.67
2019-02-15T12:00:56.789Z,4.83
2019-02-15T12:03:25.276Z,4.78
2019-02-15T12:05:53.918Z,4.42
2019-02-15T12:08:23.509Z,4.15
2019-02-15T12:10:51.989Z,4.17
2019-02-15T12:13:20.433Z,4.30
2019-02-15T12:15:48.886Z,4.87
2019-02-15T12:18:17.374Z,4.35
2019-02-15T12:20:45.815Z,4.45
2019-02-15T12:23:14.332Z,4.10
2019-02-15T12:25:43.581Z,4.00
2019-02-15T12:28:12.044Z,4.90
2019-02-15T12:30:40.491Z,4.30
2019-02-15T12:33:09.971Z,4.55
2019-02-15T12:35:38.442Z,4.00
2019-02-15T12:38:07.088Z,5.03
2019-02-15T12:40:35.568Z,4.40
2019-02-15T12:43:04.653Z,4.50
2019-02-15T12:45:33.195Z,4.83
2019-02-15T12:48:01.842Z,5.10
2019-02-15T12:50:30.307Z,5.05
2019-02-15T12:52:58.842Z,4.62
2019-02-15T12:55:29.339Z,4.55
2019-02-15T12:57:57.809Z,4.30
2019-02-15T13:00:29.332Z,4.97
2019-02-15T13:02:57.845Z,4.95
2019-02-15T13:05:27.805Z,5.10
2019-02-15T13:07:56.681Z,4.92
2019-02-15T13:10:31.085Z,5.12
2019-02-15T13:12:59.575Z,5.85
2019-02-15T13:15:28.052Z,5.20
2019-02-15T13:17:56.530Z,4.90
2019-02-15T13:20:25.064Z,4.83
2019-02-15T13:22:53.550Z,4.22
2019-02-15T13:25:22.215Z,4.83
2019-02-15T13:27:50.669Z,4.70
2019-02-15T13:30:19.130Z,4.72
2019-02-15T13:32:47.599Z,4.58
2019-02-15T13:35:23.872Z,4.20
2019-02-15T13:37:52.976Z,4.97
2019-02-15T13:40:21.439Z,5.10
2019-02-15T13:42:50.149Z,8.93
2019-02-15T13:45:18.754Z,5.37
2019-02-15T13:47:47.221Z,5.00
2019-02-15T13:50:19.197Z,5.17
2019-02-15T13:52:47.165Z,5.20
2019-02-15T13:55:15.614Z,5.53
2019-02-15T13:57:44.326Z,5.70
2019-02-15T14:00:16.473Z,5.35
2019-02-15T14:02:44.928Z,5.08
2019-02-15T14:05:13.684Z,8.50
2019-02-15T14:07:42.148Z,6.10
2019-02-15T14:10:13.846Z,5.23
2019-02-15T14:12:42.432Z,5.87
2019-02-15T14:15:12.319Z,5.75
2019-02-15T14:17:46.267Z,5.97
2019-02-15T14:20:13.244Z,6.60
2019-02-15T14:22:41.784Z,8.15
2019-02-15T14:25:13.360Z,6.22
2019-02-15T14:27:41.919Z,6.10
2019-02-15T14:30:15.650Z,5.83
2019-02-15T14:32:44.149Z,6.60
2019-02-15T14:35:14.185Z,6.17
2019-02-15T14:37:44.858Z,5.87
2019-02-15T14:40:14.099Z,7.85
2019-02-15T14:42:42.570Z,6.53
2019-02-15T14:45:13.144Z,7.45
2019-02-15T14:47:41.859Z,5.90
2019-02-15T14:50:11.546Z,6.60
2019-02-15T14:52:40.119Z,6.58
2019-02-15T14:55:10.031Z,7.00
2019-02-15T14:57:40.727Z,7.03
2019-02-15T15:00:11.974Z,6.58
2019-02-15T15:02:42.232Z,6.95
2019-02-15T15:05:12.933Z,6.87
2019-02-15T15:07:41.507Z,7.05
2019-02-15T15:10:10.802Z,7.37
2019-02-15T15:12:39.350Z,7.45
2019-02-15T15:15:11.660Z,7.67
2019-02-15T15:17:40.384Z,6.78
2019-02-15T15:20:11.491Z,9.85
2019-02-15T15:22:41.494Z,6.65
2019-02-15T15:25:12.567Z,6.85
2019-02-15T15:27:41.468Z,7.40
2019-02-15T15:30:12.246Z,7.22
2019-02-15T15:32:40.792Z,6.75
2019-02-15T15:35:11.112Z,7.47
2019-02-15T15:37:39.847Z,7.80
2019-02-15T15:40:11.357Z,7.37
2019-02-15T15:42:39.908Z,7.30
2019-02-15T15:45:11.431Z,6.87
2019-02-15T15:47:41.842Z,7.53
2019-02-15T15:50:13.987Z,7.70
2019-02-15T15:52:42.650Z,8.37
2019-02-15T15:55:12.997Z,12.60
2019-02-15T15:57:41.589Z,7.58
2019-02-15T16:00:13.118Z,8.40
2019-02-15T16:02:44.257Z,10.60
2019-02-15T16:05:12.851Z,10.43
2019-02-15T16:08:03.069Z,9.00
2019-02-15T16:10:31.535Z,8.80
2019-02-15T16:13:01.608Z,8.25
2019-02-15T16:15:31.128Z,9.30
2019-02-15T16:17:59.673Z,10.45
2019-02-15T16:20:29.485Z,8.50
2019-02-15T16:22:57.975Z,8.03
2019-02-15T16:25:26.456Z,8.05
2019-02-15T16:27:59.851Z,8.33
2019-02-15T16:30:28.416Z,8.25
2019-02-15T16:32:56.968Z,10.78
2019-02-15T16:35:26.725Z,11.08
2019-02-15T16:37:55.290Z,11.65
2019-02-15T16:40:23.775Z,10.72
2019-02-15T16:42:53.366Z,9.20
2019-02-15T16:45:23.581Z,17.62
2019-02-15T16:47:52.205Z,10.18
2019-02-15T16:50:20.658Z,10.43
2019-02-15T16:52:50.475Z,8.63
2019-02-15T16:55:20.648Z,9.83
2019-02-15T16:57:50.036Z,10.32
2019-02-15T17:00:19.647Z,10.80
2019-02-15T17:02:48.280Z,11.03
2019-02-15T17:05:19.811Z,10.58
2019-02-15T17:07:48.874Z,10.48
2019-02-15T17:10:18.322Z,10.00
2019-02-15T17:12:48.715Z,10.05
2019-02-15T17:15:17.252Z,10.45
2019-02-15T17:17:45.868Z,11.00
2019-02-15T17:20:14.350Z,10.93
2019-02-15T17:22:42.939Z,11.68
2019-02-15T17:25:12.311Z,12.18
2019-02-15T17:27:40.978Z,11.93
2019-02-15T17:30:12.681Z,12.35
2019-02-15T17:32:41.301Z,12.40
2019-02-15T17:35:10.995Z,13.93
2019-02-15T17:37:39.773Z,12.53
2019-02-15T17:40:10.907Z,12.40
2019-02-15T17:42:40.640Z,11.63
2019-02-15T17:45:12.365Z,12.15
2019-02-15T17:47:41.268Z,12.58
2019-02-15T17:50:11.167Z,12.78
2019-02-15T17:52:39.817Z,19.35
2019-02-15T17:55:10.146Z,19.25
2019-02-15T17:57:38.800Z,52.62
2019-02-15T18:00:12.996Z,53.00
2019-02-15T18:02:41.546Z,36.17
2019-02-15T18:05:16.815Z,30.68
2019-02-15T18:07:50.619Z,52.90
2019-02-15T18:10:19.154Z,36.00
2019-02-15T18:12:49.255Z,20.95
2019-02-15T18:15:17.844Z,15.20
2019-02-15T18:17:53.405Z,16.95
2019-02-15T18:20:21.939Z,17.70
2019-02-15T18:22:50.450Z,18.73
2019-02-15T18:25:18.928Z,15.27
2019-02-15T18:27:48.821Z,14.65
2019-02-15T18:30:17.970Z,12.63
2019-02-15T18:32:47.445Z,12.58
2019-02-15T18:35:15.922Z,13.68
2019-02-15T18:37:50.697Z,14.55
2019-02-15T18:40:19.161Z,19.25
2019-02-15T18:42:47.697Z,21.60
2019-02-15T18:45:17.854Z,35.88
2019-02-15T18:47:48.236Z,37.58
2019-02-15T18:50:25.682Z,54.23
2019-02-15T18:52:55.142Z,25.43
2019-02-15T18:55:23.686Z,20.97
2019-02-15T18:57:52.545Z,30.23
2019-02-15T19:00:22.676Z,22.73
2019-02-15T19:02:53.885Z,13.35
2019-02-15T19:05:22.405Z,14.07
2019-02-15T19:07:50.958Z,12.53
2019-02-15T19:10:23.775Z,11.87
2019-02-15T19:12:53.356Z,12.07
2019-02-15T19:15:21.923Z,12.13
2019-02-15T19:17:51.648Z,11.48
2019-02-15T19:20:22.326Z,17.65
2019-02-15T19:22:50.811Z,16.57
2019-02-15T19:25:22.453Z,14.40
2019-02-15T19:27:52.888Z,12.07
2019-02-15T19:30:33.562Z,10.90
2019-02-15T19:33:05.123Z,12.82
2019-02-15T19:35:36.532Z,12.75
2019-02-15T19:38:06.558Z,13.98
2019-02-15T19:40:36.639Z,13.95
2019-02-15T19:43:08.154Z,15.23
2019-02-15T19:45:36.628Z,18.62
2019-02-15T19:48:05.314Z,19.65
2019-02-15T19:50:35.328Z,23.50
2019-02-15T19:53:06.422Z,20.77
2019-02-15T19:55:34.955Z,44.03
2019-02-15T19:58:03.413Z,27.77
2019-02-15T20:00:35.601Z,37.93
2019-02-15T20:03:04.772Z,21.85
2019-02-15T20:05:33.718Z,28.65
2019-02-15T20:08:03.294Z,23.02
2019-02-15T20:10:33.739Z,22.40
2019-02-15T20:13:02.897Z,13.75
2019-02-15T20:15:31.801Z,20.57
2019-02-15T20:18:00.856Z,19.52
2019-02-15T20:20:29.639Z,18.60
2019-02-15T20:22:59.654Z,20.32
2019-02-15T20:25:29.573Z,17.02
2019-02-15T20:27:58.255Z,17.92
2019-02-15T20:30:29.988Z,16.62
2019-02-15T20:32:59.081Z,15.50
2019-02-15T20:35:27.997Z,15.45
2019-02-15T20:37:56.616Z,15.00
2019-02-15T20:40:25.089Z,16.65
2019-02-15T20:42:58.923Z,16.75
2019-02-15T20:45:28.409Z,17.40
2019-02-15T20:47:58.409Z,17.05
2019-02-15T20:50:28.445Z,16.57
2019-02-15T20:52:56.996Z,15.20
2019-02-15T20:55:26.491Z,15.58
2019-02-15T20:57:55.307Z,18.02
2019-02-15T21:00:26.913Z,16.95
2019-02-15T21:02:57.427Z,17.37
2019-02-15T21:05:28.645Z,19.67
2019-02-15T21:07:57.561Z,19.95
2019-02-15T21:10:26.357Z,16.40
2019-02-15T21:12:55.928Z,15.88
2019-02-15T21:15:24.896Z,16.48
2019-02-15T21:17:54.085Z,15.88
2019-02-15T21:20:24.565Z,14.87
2019-02-15T21:22:55.172Z,16.25
2019-02-15T21:25:24.408Z,15.78
2019-02-15T21:27:53.705Z,17.60
2019-02-15T21:30:23.840Z,18.73
2019-02-15T21:32:55.131Z,18.02
2019-02-15T21:35:25.185Z,19.20
2019-02-15T21:37:53.864Z,17.32
2019-02-15T21:40:22.347Z,18.50
2019-02-15T21:42:52.165Z,18.55
2019-02-15T21:45:21.267Z,17.80
2019-02-15T21:47:50.163Z,17.77
2019-02-15T21:50:18.687Z,17.80
2019-02-15T21:52:50.148Z,24.77
2019-02-15T21:55:18.620Z,30.60
2019-02-15T21:57:47.173Z,21.27
2019-02-15T22:00:22.618Z,19.85
2019-02-15T22:02:52.260Z,23.35
2019-02-15T22:05:23.409Z,44.23
2019-02-15T22:07:52.066Z,37.42
2019-02-15T22:10:20.616Z,23.52
2019-02-15T22:12:49.135Z,25.72
2019-02-15T22:15:19.257Z,24.18
2019-02-15T22:17:47.735Z,39.13
2019-02-15T22:20:26.247Z,36.68
2019-02-15T22:22:51.848Z,37.23
2019-02-15T22:25:20.340Z,34.45
2019-02-15T22:27:50.312Z,26.87
2019-02-15T22:30:20.696Z,24.80
2019-02-15T22:32:49.220Z,22.73
2019-02-15T22:35:17.748Z,23.00
2019-02-15T22:37:46.345Z,20.65
2019-02-15T22:40:31.615Z,20.02
2019-02-15T22:43:20.975Z,28.00
2019-02-15T22:45:50.209Z,30.05
2019-02-15T22:48:19.134Z,24.57
2019-02-15T22:50:47.735Z,24.27
2019-02-15T22:53:16.215Z,25.27
2019-02-15T22:55:44.741Z,19.23
2019-02-15T22:58:13.309Z,18.15
2019-02-15T23:00:54.350Z,18.77
2019-02-15T23:03:25.464Z,18.90
2019-02-15T23:05:54.018Z,21.35
2019-02-15T23:08:22.545Z,18.62
2019-02-15T23:10:51.114Z,18.45
2019-02-15T23:13:19.639Z,18.47
2019-02-15T23:15:48.183Z,18.20
2019-02-15T23:18:18.798Z,17.85
2019-02-15T23:20:46.911Z,22.45
2019-02-15T23:23:16.910Z,19.55
2019-02-15T23:25:47.580Z,17.98
2019-02-15T23:28:16.147Z,20.80
2019-02-15T23:30:44.594Z,21.15
2019-02-15T23:33:13.123Z,28.95
2019-02-15T23:35:41.739Z,21.37
2019-02-15T23:38:10.174Z,16.80
2019-02-15T23:40:38.759Z,16.23
2019-02-15T23:43:08.686Z,16.73
2019-02-15T23:45:39.650Z,15.18
2019-02-15T23:48:10.080Z,16.80
2019-02-15T23:50:38.552Z,17.15
2019-02-15T23:53:07.091Z,15.85
2019-02-15T23:55:35.608Z,15.13
2019-02-15T23:58:07.680Z,15.50
